Aérodrome :
LOGIN :

S'inscrire | Disclaimer

   EN    FR    IT 

 










Légende :    VFR   VFR Marginal   IFR   IFR Intensif   IFR Très Intensif
Visi : 
Plafond : 
>= 8 km
>= 3000ft
5 à 8 km
1000 à 3000 ft
1500m à 5 km
500 à 1000 ft
800 à 1500m
200 à 500 ft
< 800m
< 200 ft
Symboles :   Orages  Brouillard  Fortes neiges  Fortes précipitations  Vent > 20 kt
SIGMETs :   Divers  Orages  Givrage  Turbulence  Onde Orograph.  Cendres Volcan.







- Altitude de l'aérodrome : 257 ft
- Code IATA : MAN
- Voir les cartes d'approche


EGCC - Manchester

DERNIER METAR :
  • 140950Z AUTO 25010KT 9999 BKN019 OVC048 19/14 Q1015 NOSIG

METARs EXPIRÉS :
  • 140920Z AUTO 26009KT 9999 BKN018 OVC048 18/14 Q1015 NOSIG
  • 140850Z AUTO 23006KT 190V250 9999 SCT038 OVC048 17/14 Q1015 NOSIG
  • 140820Z AUTO 21004KT 9999 OVC039 16/14 Q1014 NOSIG
  • 140750Z AUTO VRB03KT 9999 OVC037 15/13 Q1014 NOSIG
  • 140720Z AUTO 17004KT 130V210 9999 OVC036 15/13 Q1014 NOSIG

TAF TAF EGCC
Valide du 14 à 06h jusqu'au 15 à 12h UTC


140455Z 1406/1512 VRB03KT 9999 SCT030
BECMG 1406/1409 28010KT
PROB30
TEMPO 1406/1410 8000 BKN009
BECMG 1419/1422 22005KT
TEMPO 1419/1510 BKN014
PROB30
TEMPO 1419/1509 4000 -DZ BKN005
ATIS : +44 161 499 2324
Pas de NOTAMs connus pour ce terrain.



MET'MAP, la Météo Aéronautique d'un coup d'oeil ! - Copyright ORBIFLY Décembre 2007 - Disclaimer

ORBIFLY MET'MAP TEAM :

Programmation & Développement : Alexandra Zaïnal
Conception & Développement : Baudouin d'Aumeries
Co-Programmation & Développement : Marc-Olivier Méhu
Soutien technique & logistique : Manuel Goepfert

Contact : metmap@orbifly.com




SOURCES & CREDITS :

   NOAA